sensor_id;sensor_type;location;lat;lon;timestamp;P1;durP1;ratioP1;P2;durP2;ratioP2
11203;SDS011;5659;49.408;11.116;2024-03-22T00:02:17;77.90;;;29.70;;
11203;SDS011;5659;49.408;11.116;2024-03-22T00:04:43;68.20;;;30.50;;
11203;SDS011;5659;49.408;11.116;2024-03-22T00:07:08;70.70;;;30.97;;
11203;SDS011;5659;49.408;11.116;2024-03-22T00:09:34;79.27;;;32.23;;
11203;SDS011;5659;49.408;11.116;2024-03-22T00:12:00;76.30;;;30.80;;
11203;SDS011;5659;49.408;11.116;2024-03-22T00:14:26;66.97;;;30.43;;
11203;SDS011;5659;49.408;11.116;2024-03-22T00:16:52;88.00;;;31.43;;
11203;SDS011;5659;49.408;11.116;2024-03-22T00:19:18;72.50;;;30.77;;
11203;SDS011;5659;49.408;11.116;2024-03-22T00:21:44;81.20;;;31.63;;
11203;SDS011;5659;49.408;11.116;2024-03-22T00:24:10;70.60;;;31.47;;
11203;SDS011;5659;49.408;11.116;2024-03-22T00:26:36;75.90;;;30.57;;
11203;SDS011;5659;49.408;11.116;2024-03-22T00:29:02;66.57;;;30.43;;
11203;SDS011;5659;49.408;11.116;2024-03-22T00:31:28;85.77;;;32.77;;
11203;SDS011;5659;49.408;11.116;2024-03-22T00:33:54;91.33;;;33.53;;
11203;SDS011;5659;49.408;11.116;2024-03-22T00:36:20;82.50;;;32.23;;
11203;SDS011;5659;49.408;11.116;2024-03-22T00:38:46;102.33;;;34.73;;
11203;SDS011;5659;49.408;11.116;2024-03-22T00:41:12;85.00;;;33.30;;
11203;SDS011;5659;49.408;11.116;2024-03-22T00:43:38;85.07;;;33.70;;
11203;SDS011;5659;49.408;11.116;2024-03-22T00:46:04;92.77;;;33.57;;
11203;SDS011;5659;49.408;11.116;2024-03-22T00:48:30;86.70;;;34.30;;
11203;SDS011;5659;49.408;11.116;2024-03-22T00:50:56;96.13;;;34.00;;
11203;SDS011;5659;49.408;11.116;2024-03-22T00:53:22;95.23;;;34.13;;
11203;SDS011;5659;49.408;11.116;2024-03-22T00:55:48;92.57;;;35.23;;
11203;SDS011;5659;49.408;11.116;2024-03-22T00:58:17;96.30;;;35.90;;
11203;SDS011;5659;49.408;11.116;2024-03-22T01:00:43;90.90;;;35.13;;
11203;SDS011;5659;49.408;11.116;2024-03-22T01:03:09;106.73;;;36.87;;
11203;SDS011;5659;49.408;11.116;2024-03-22T01:05:35;92.63;;;34.87;;
11203;SDS011;5659;49.408;11.116;2024-03-22T01:08:01;73.57;;;32.57;;
11203;SDS011;5659;49.408;11.116;2024-03-22T01:10:27;78.47;;;32.93;;
11203;SDS011;5659;49.408;11.116;2024-03-22T01:12:53;91.80;;;33.57;;
11203;SDS011;5659;49.408;11.116;2024-03-22T01:15:19;82.23;;;33.67;;
11203;SDS011;5659;49.408;11.116;2024-03-22T01:17:45;89.00;;;33.80;;
11203;SDS011;5659;49.408;11.116;2024-03-22T01:20:11;88.33;;;34.53;;
11203;SDS011;5659;49.408;11.116;2024-03-22T01:22:37;86.53;;;33.80;;
11203;SDS011;5659;49.408;11.116;2024-03-22T01:25:03;87.87;;;33.93;;
11203;SDS011;5659;49.408;11.116;2024-03-22T01:27:29;83.67;;;33.03;;
11203;SDS011;5659;49.408;11.116;2024-03-22T01:29:55;88.23;;;31.80;;
11203;SDS011;5659;49.408;11.116;2024-03-22T01:32:21;72.57;;;32.33;;
11203;SDS011;5659;49.408;11.116;2024-03-22T01:34:47;79.40;;;32.30;;
11203;SDS011;5659;49.408;11.116;2024-03-22T01:37:13;92.13;;;33.77;;
11203;SDS011;5659;49.408;11.116;2024-03-22T01:39:39;82.57;;;33.63;;
11203;SDS011;5659;49.408;11.116;2024-03-22T01:42:05;88.83;;;34.73;;
11203;SDS011;5659;49.408;11.116;2024-03-22T01:44:31;97.53;;;36.60;;
11203;SDS011;5659;49.408;11.116;2024-03-22T01:46:58;94.37;;;35.83;;
11203;SDS011;5659;49.408;11.116;2024-03-22T01:49:27;87.67;;;34.87;;
11203;SDS011;5659;49.408;11.116;2024-03-22T01:51:53;87.03;;;33.80;;
11203;SDS011;5659;49.408;11.116;2024-03-22T01:54:19;91.10;;;35.03;;
11203;SDS011;5659;49.408;11.116;2024-03-22T01:56:45;103.37;;;36.50;;
11203;SDS011;5659;49.408;11.116;2024-03-22T01:59:12;101.80;;;36.97;;
11203;SDS011;5659;49.408;11.116;2024-03-22T02:01:38;107.07;;;37.23;;
11203;SDS011;5659;49.408;11.116;2024-03-22T02:04:04;95.77;;;37.27;;
11203;SDS011;5659;49.408;11.116;2024-03-22T02:06:31;99.50;;;37.30;;
11203;SDS011;5659;49.408;11.116;2024-03-22T02:08:57;90.13;;;35.83;;
11203;SDS011;5659;49.408;11.116;2024-03-22T02:11:24;88.40;;;35.23;;
11203;SDS011;5659;49.408;11.116;2024-03-22T02:13:51;94.37;;;35.30;;
11203;SDS011;5659;49.408;11.116;2024-03-22T02:16:17;91.77;;;34.47;;
11203;SDS011;5659;49.408;11.116;2024-03-22T02:18:43;96.90;;;33.20;;
11203;SDS011;5659;49.408;11.116;2024-03-22T02:21:12;85.37;;;34.80;;
11203;SDS011;5659;49.408;11.116;2024-03-22T02:23:38;81.83;;;33.73;;
11203;SDS011;5659;49.408;11.116;2024-03-22T02:26:05;89.67;;;34.40;;
11203;SDS011;5659;49.408;11.116;2024-03-22T02:28:32;87.07;;;34.63;;
11203;SDS011;5659;49.408;11.116;2024-03-22T02:30:58;104.67;;;36.57;;
11203;SDS011;5659;49.408;11.116;2024-03-22T02:33:24;86.17;;;34.50;;
11203;SDS011;5659;49.408;11.116;2024-03-22T02:35:50;89.10;;;34.47;;
11203;SDS011;5659;49.408;11.116;2024-03-22T02:38:17;95.60;;;34.67;;
11203;SDS011;5659;49.408;11.116;2024-03-22T02:40:43;90.40;;;34.63;;
11203;SDS011;5659;49.408;11.116;2024-03-22T02:43:09;96.90;;;35.77;;
11203;SDS011;5659;49.408;11.116;2024-03-22T02:45:35;100.53;;;33.40;;
11203;SDS011;5659;49.408;11.116;2024-03-22T02:48:01;90.30;;;33.60;;
11203;SDS011;5659;49.408;11.116;2024-03-22T02:50:27;87.37;;;33.17;;
11203;SDS011;5659;49.408;11.116;2024-03-22T02:52:53;92.33;;;33.80;;
11203;SDS011;5659;49.408;11.116;2024-03-22T02:55:19;97.13;;;33.23;;
11203;SDS011;5659;49.408;11.116;2024-03-22T02:57:45;86.30;;;33.83;;
11203;SDS011;5659;49.408;11.116;2024-03-22T03:00:11;91.83;;;34.10;;
11203;SDS011;5659;49.408;11.116;2024-03-22T03:02:37;80.97;;;32.27;;
11203;SDS011;5659;49.408;11.116;2024-03-22T03:05:03;90.87;;;34.33;;
11203;SDS011;5659;49.408;11.116;2024-03-22T03:07:29;98.97;;;34.80;;
11203;SDS011;5659;49.408;11.116;2024-03-22T03:09:55;97.70;;;36.07;;
11203;SDS011;5659;49.408;11.116;2024-03-22T03:12:21;87.20;;;33.10;;
11203;SDS011;5659;49.408;11.116;2024-03-22T03:14:47;88.97;;;34.33;;
11203;SDS011;5659;49.408;11.116;2024-03-22T03:17:13;101.07;;;35.17;;
11203;SDS011;5659;49.408;11.116;2024-03-22T03:19:39;77.87;;;33.50;;
11203;SDS011;5659;49.408;11.116;2024-03-22T03:22:05;99.30;;;35.30;;
11203;SDS011;5659;49.408;11.116;2024-03-22T03:24:31;105.80;;;35.23;;
11203;SDS011;5659;49.408;11.116;2024-03-22T03:26:57;96.10;;;35.17;;
11203;SDS011;5659;49.408;11.116;2024-03-22T03:29:23;107.10;;;35.87;;
11203;SDS011;5659;49.408;11.116;2024-03-22T03:31:49;110.00;;;36.13;;
11203;SDS011;5659;49.408;11.116;2024-03-22T03:34:15;105.73;;;36.57;;
11203;SDS011;5659;49.408;11.116;2024-03-22T03:36:41;127.17;;;38.27;;
11203;SDS011;5659;49.408;11.116;2024-03-22T03:39:07;99.13;;;35.77;;
11203;SDS011;5659;49.408;11.116;2024-03-22T03:41:33;92.93;;;34.57;;
11203;SDS011;5659;49.408;11.116;2024-03-22T03:43:59;95.10;;;35.37;;
11203;SDS011;5659;49.408;11.116;2024-03-22T03:46:25;108.03;;;36.60;;
11203;SDS011;5659;49.408;11.116;2024-03-22T03:48:51;101.17;;;35.33;;
11203;SDS011;5659;49.408;11.116;2024-03-22T03:51:17;106.77;;;36.27;;
11203;SDS011;5659;49.408;11.116;2024-03-22T03:53:43;97.50;;;35.07;;
11203;SDS011;5659;49.408;11.116;2024-03-22T03:56:09;93.07;;;33.80;;
11203;SDS011;5659;49.408;11.116;2024-03-22T03:58:35;106.50;;;35.70;;
11203;SDS011;5659;49.408;11.116;2024-03-22T04:01:07;104.20;;;34.73;;
11203;SDS011;5659;49.408;11.116;2024-03-22T04:03:33;99.40;;;34.17;;
11203;SDS011;5659;49.408;11.116;2024-03-22T04:06:00;103.87;;;36.03;;
11203;SDS011;5659;49.408;11.116;2024-03-22T04:08:26;116.90;;;37.37;;
11203;SDS011;5659;49.408;11.116;2024-03-22T04:10:55;104.93;;;37.10;;
11203;SDS011;5659;49.408;11.116;2024-03-22T04:13:22;97.73;;;35.20;;
11203;SDS011;5659;49.408;11.116;2024-03-22T04:15:48;114.40;;;36.37;;
11203;SDS011;5659;49.408;11.116;2024-03-22T04:18:14;83.60;;;33.57;;
11203;SDS011;5659;49.408;11.116;2024-03-22T04:20:40;92.03;;;34.20;;
11203;SDS011;5659;49.408;11.116;2024-03-22T04:23:06;101.57;;;34.70;;
11203;SDS011;5659;49.408;11.116;2024-03-22T04:25:32;99.73;;;34.60;;
11203;SDS011;5659;49.408;11.116;2024-03-22T04:27:58;89.97;;;33.90;;
11203;SDS011;5659;49.408;11.116;2024-03-22T04:30:23;106.80;;;36.10;;
11203;SDS011;5659;49.408;11.116;2024-03-22T04:32:49;114.27;;;35.17;;
11203;SDS011;5659;49.408;11.116;2024-03-22T04:35:15;101.37;;;35.10;;
11203;SDS011;5659;49.408;11.116;2024-03-22T04:37:41;124.30;;;36.43;;
11203;SDS011;5659;49.408;11.116;2024-03-22T04:40:08;107.23;;;34.40;;
11203;SDS011;5659;49.408;11.116;2024-03-22T04:42:35;105.47;;;35.07;;
11203;SDS011;5659;49.408;11.116;2024-03-22T04:45:01;94.33;;;34.70;;
11203;SDS011;5659;49.408;11.116;2024-03-22T04:47:27;106.13;;;36.07;;
11203;SDS011;5659;49.408;11.116;2024-03-22T04:49:52;100.60;;;35.30;;
11203;SDS011;5659;49.408;11.116;2024-03-22T04:52:18;98.03;;;34.33;;
11203;SDS011;5659;49.408;11.116;2024-03-22T04:54:44;107.77;;;36.43;;
11203;SDS011;5659;49.408;11.116;2024-03-22T04:57:12;113.33;;;38.17;;
11203;SDS011;5659;49.408;11.116;2024-03-22T04:59:38;114.20;;;37.73;;
11203;SDS011;5659;49.408;11.116;2024-03-22T05:02:04;119.97;;;39.20;;
11203;SDS011;5659;49.408;11.116;2024-03-22T05:04:30;129.67;;;38.60;;
11203;SDS011;5659;49.408;11.116;2024-03-22T05:06:56;101.60;;;37.40;;
11203;SDS011;5659;49.408;11.116;2024-03-22T05:09:22;105.17;;;36.87;;
11203;SDS011;5659;49.408;11.116;2024-03-22T05:11:48;98.60;;;35.23;;
11203;SDS011;5659;49.408;11.116;2024-03-22T05:14:15;107.70;;;36.27;;
11203;SDS011;5659;49.408;11.116;2024-03-22T05:16:41;107.17;;;36.70;;
11203;SDS011;5659;49.408;11.116;2024-03-22T05:19:07;116.37;;;34.77;;
11203;SDS011;5659;49.408;11.116;2024-03-22T05:21:33;102.47;;;35.13;;
11203;SDS011;5659;49.408;11.116;2024-03-22T05:23:59;110.10;;;35.63;;
11203;SDS011;5659;49.408;11.116;2024-03-22T05:26:25;105.03;;;34.77;;
11203;SDS011;5659;49.408;11.116;2024-03-22T05:28:51;114.50;;;37.23;;
11203;SDS011;5659;49.408;11.116;2024-03-22T05:31:17;98.80;;;36.73;;
11203;SDS011;5659;49.408;11.116;2024-03-22T05:33:43;111.63;;;36.47;;
11203;SDS011;5659;49.408;11.116;2024-03-22T05:36:09;110.57;;;35.23;;
11203;SDS011;5659;49.408;11.116;2024-03-22T05:38:35;111.07;;;35.67;;
11203;SDS011;5659;49.408;11.116;2024-03-22T05:41:04;97.70;;;34.83;;
11203;SDS011;5659;49.408;11.116;2024-03-22T05:43:30;102.60;;;34.60;;
11203;SDS011;5659;49.408;11.116;2024-03-22T05:45:56;104.57;;;34.67;;
11203;SDS011;5659;49.408;11.116;2024-03-22T05:48:22;93.03;;;33.70;;
11203;SDS011;5659;49.408;11.116;2024-03-22T05:50:48;95.80;;;34.80;;
11203;SDS011;5659;49.408;11.116;2024-03-22T05:53:14;103.27;;;35.00;;
11203;SDS011;5659;49.408;11.116;2024-03-22T05:55:40;106.17;;;36.87;;
11203;SDS011;5659;49.408;11.116;2024-03-22T05:58:08;95.13;;;36.33;;
11203;SDS011;5659;49.408;11.116;2024-03-22T06:00:34;109.20;;;36.43;;
11203;SDS011;5659;49.408;11.116;2024-03-22T06:03:00;106.20;;;37.07;;
11203;SDS011;5659;49.408;11.116;2024-03-22T06:05:26;107.30;;;36.07;;
11203;SDS011;5659;49.408;11.116;2024-03-22T06:07:52;105.77;;;37.60;;
11203;SDS011;5659;49.408;11.116;2024-03-22T06:10:18;111.03;;;36.07;;
11203;SDS011;5659;49.408;11.116;2024-03-22T06:12:44;105.83;;;37.53;;
11203;SDS011;5659;49.408;11.116;2024-03-22T06:15:12;109.13;;;38.20;;
11203;SDS011;5659;49.408;11.116;2024-03-22T06:17:38;118.47;;;38.87;;
11203;SDS011;5659;49.408;11.116;2024-03-22T06:20:04;108.33;;;38.50;;
11203;SDS011;5659;49.408;11.116;2024-03-22T06:22:30;135.00;;;39.53;;
11203;SDS011;5659;49.408;11.116;2024-03-22T06:24:56;104.73;;;37.53;;
11203;SDS011;5659;49.408;11.116;2024-03-22T06:27:22;92.30;;;35.67;;
11203;SDS011;5659;49.408;11.116;2024-03-22T06:29:48;140.00;;;41.20;;
11203;SDS011;5659;49.408;11.116;2024-03-22T06:32:14;106.63;;;38.17;;
11203;SDS011;5659;49.408;11.116;2024-03-22T06:34:40;101.47;;;39.23;;
11203;SDS011;5659;49.408;11.116;2024-03-22T06:37:06;109.60;;;39.27;;
11203;SDS011;5659;49.408;11.116;2024-03-22T06:39:32;107.40;;;39.97;;
11203;SDS011;5659;49.408;11.116;2024-03-22T06:41:58;107.80;;;41.50;;
11203;SDS011;5659;49.408;11.116;2024-03-22T06:44:24;116.10;;;41.33;;
11203;SDS011;5659;49.408;11.116;2024-03-22T06:46:50;117.53;;;41.70;;
11203;SDS011;5659;49.408;11.116;2024-03-22T06:49:16;117.03;;;44.10;;
11203;SDS011;5659;49.408;11.116;2024-03-22T06:51:42;121.60;;;41.20;;
11203;SDS011;5659;49.408;11.116;2024-03-22T06:54:08;122.07;;;43.90;;
11203;SDS011;5659;49.408;11.116;2024-03-22T06:56:34;105.40;;;40.90;;
11203;SDS011;5659;49.408;11.116;2024-03-22T06:59:00;92.27;;;38.77;;
11203;SDS011;5659;49.408;11.116;2024-03-22T07:01:26;98.20;;;39.43;;
11203;SDS011;5659;49.408;11.116;2024-03-22T07:03:52;85.00;;;36.77;;
11203;SDS011;5659;49.408;11.116;2024-03-22T07:06:18;86.67;;;36.63;;
11203;SDS011;5659;49.408;11.116;2024-03-22T07:08:45;92.70;;;36.57;;
11203;SDS011;5659;49.408;11.116;2024-03-22T07:11:11;69.83;;;33.30;;
11203;SDS011;5659;49.408;11.116;2024-03-22T07:13:37;68.07;;;32.47;;
11203;SDS011;5659;49.408;11.116;2024-03-22T07:16:03;64.07;;;31.43;;
11203;SDS011;5659;49.408;11.116;2024-03-22T07:18:29;71.97;;;30.83;;
11203;SDS011;5659;49.408;11.116;2024-03-22T07:20:55;65.53;;;31.40;;
11203;SDS011;5659;49.408;11.116;2024-03-22T07:23:22;58.67;;;29.47;;
11203;SDS011;5659;49.408;11.116;2024-03-22T07:25:48;56.80;;;29.30;;
11203;SDS011;5659;49.408;11.116;2024-03-22T07:28:14;63.57;;;30.13;;
11203;SDS011;5659;49.408;11.116;2024-03-22T07:30:41;53.63;;;28.77;;
11203;SDS011;5659;49.408;11.116;2024-03-22T07:33:07;58.03;;;28.83;;
11203;SDS011;5659;49.408;11.116;2024-03-22T07:35:36;61.23;;;28.20;;
11203;SDS011;5659;49.408;11.116;2024-03-22T07:38:02;51.87;;;27.10;;
11203;SDS011;5659;49.408;11.116;2024-03-22T07:40:29;52.93;;;26.70;;
11203;SDS011;5659;49.408;11.116;2024-03-22T07:42:55;45.77;;;25.47;;
11203;SDS011;5659;49.408;11.116;2024-03-22T07:45:21;51.30;;;25.83;;
11203;SDS011;5659;49.408;11.116;2024-03-22T07:47:47;56.53;;;27.33;;
11203;SDS011;5659;49.408;11.116;2024-03-22T07:50:13;41.70;;;24.03;;
11203;SDS011;5659;49.408;11.116;2024-03-22T07:52:40;40.60;;;24.23;;
11203;SDS011;5659;49.408;11.116;2024-03-22T07:55:06;41.60;;;22.77;;
11203;SDS011;5659;49.408;11.116;2024-03-22T07:57:32;37.83;;;22.87;;
11203;SDS011;5659;49.408;11.116;2024-03-22T07:59:58;35.47;;;21.97;;
11203;SDS011;5659;49.408;11.116;2024-03-22T08:02:24;35.83;;;21.83;;
11203;SDS011;5659;49.408;11.116;2024-03-22T08:04:50;34.23;;;21.77;;
11203;SDS011;5659;49.408;11.116;2024-03-22T08:07:16;34.00;;;21.70;;
11203;SDS011;5659;49.408;11.116;2024-03-22T08:09:42;33.67;;;21.17;;
11203;SDS011;5659;49.408;11.116;2024-03-22T08:12:08;32.55;;;20.73;;
11203;SDS011;5659;49.408;11.116;2024-03-22T08:14:34;34.65;;;20.80;;
11203;SDS011;5659;49.408;11.116;2024-03-22T08:17:00;29.10;;;19.45;;
11203;SDS011;5659;49.408;11.116;2024-03-22T08:19:26;32.33;;;19.08;;
11203;SDS011;5659;49.408;11.116;2024-03-22T08:21:53;32.53;;;19.67;;
11203;SDS011;5659;49.408;11.116;2024-03-22T08:24:19;28.95;;;19.23;;
11203;SDS011;5659;49.408;11.116;2024-03-22T08:26:45;22.10;;;17.42;;
11203;SDS011;5659;49.408;11.116;2024-03-22T08:29:12;23.70;;;17.90;;
11203;SDS011;5659;49.408;11.116;2024-03-22T08:31:39;26.23;;;17.70;;
11203;SDS011;5659;49.408;11.116;2024-03-22T08:34:05;23.10;;;16.92;;
11203;SDS011;5659;49.408;11.116;2024-03-22T08:36:31;23.98;;;15.85;;
11203;SDS011;5659;49.408;11.116;2024-03-22T08:38:57;23.50;;;14.65;;
11203;SDS011;5659;49.408;11.116;2024-03-22T08:41:23;24.25;;;15.07;;
11203;SDS011;5659;49.408;11.116;2024-03-22T08:43:49;18.73;;;13.80;;
11203;SDS011;5659;49.408;11.116;2024-03-22T08:46:15;27.70;;;14.35;;
11203;SDS011;5659;49.408;11.116;2024-03-22T08:48:41;18.10;;;13.65;;
11203;SDS011;5659;49.408;11.116;2024-03-22T08:51:07;19.52;;;13.23;;
11203;SDS011;5659;49.408;11.116;2024-03-22T08:53:33;20.50;;;12.57;;
11203;SDS011;5659;49.408;11.116;2024-03-22T08:55:59;20.65;;;12.95;;
11203;SDS011;5659;49.408;11.116;2024-03-22T08:58:26;22.02;;;12.82;;
11203;SDS011;5659;49.408;11.116;2024-03-22T09:00:51;17.20;;;12.27;;
11203;SDS011;5659;49.408;11.116;2024-03-22T09:03:18;19.60;;;12.73;;
11203;SDS011;5659;49.408;11.116;2024-03-22T09:05:46;15.40;;;12.68;;
11203;SDS011;5659;49.408;11.116;2024-03-22T09:08:12;22.60;;;12.57;;
11203;SDS011;5659;49.408;11.116;2024-03-22T09:10:38;18.88;;;13.05;;
11203;SDS011;5659;49.408;11.116;2024-03-22T09:13:04;18.15;;;12.57;;
11203;SDS011;5659;49.408;11.116;2024-03-22T09:15:30;21.50;;;13.43;;
11203;SDS011;5659;49.408;11.116;2024-03-22T09:17:56;16.98;;;12.82;;
11203;SDS011;5659;49.408;11.116;2024-03-22T09:20:22;16.35;;;11.93;;
11203;SDS011;5659;49.408;11.116;2024-03-22T09:22:48;22.67;;;12.20;;
11203;SDS011;5659;49.408;11.116;2024-03-22T09:25:14;17.90;;;12.70;;
11203;SDS011;5659;49.408;11.116;2024-03-22T09:27:40;16.00;;;12.57;;
11203;SDS011;5659;49.408;11.116;2024-03-22T09:30:07;17.05;;;12.70;;
11203;SDS011;5659;49.408;11.116;2024-03-22T09:32:34;20.83;;;13.10;;
11203;SDS011;5659;49.408;11.116;2024-03-22T09:35:00;17.30;;;12.60;;
11203;SDS011;5659;49.408;11.116;2024-03-22T09:37:26;14.32;;;11.68;;
11203;SDS011;5659;49.408;11.116;2024-03-22T09:39:52;15.10;;;11.95;;
11203;SDS011;5659;49.408;11.116;2024-03-22T09:42:18;14.93;;;11.75;;
11203;SDS011;5659;49.408;11.116;2024-03-22T09:44:48;18.88;;;11.68;;
11203;SDS011;5659;49.408;11.116;2024-03-22T09:47:15;18.95;;;11.65;;
11203;SDS011;5659;49.408;11.116;2024-03-22T09:49:42;16.17;;;11.63;;
11203;SDS011;5659;49.408;11.116;2024-03-22T09:52:11;18.50;;;11.82;;
11203;SDS011;5659;49.408;11.116;2024-03-22T09:54:38;15.10;;;11.48;;
11203;SDS011;5659;49.408;11.116;2024-03-22T09:57:05;15.20;;;11.23;;
11203;SDS011;5659;49.408;11.116;2024-03-22T09:59:32;16.25;;;11.52;;
11203;SDS011;5659;49.408;11.116;2024-03-22T10:01:58;15.93;;;11.90;;
11203;SDS011;5659;49.408;11.116;2024-03-22T10:04:25;19.90;;;11.70;;
11203;SDS011;5659;49.408;11.116;2024-03-22T10:06:51;17.77;;;11.63;;
11203;SDS011;5659;49.408;11.116;2024-03-22T10:09:17;14.07;;;11.63;;
11203;SDS011;5659;49.408;11.116;2024-03-22T10:11:43;16.00;;;11.00;;
11203;SDS011;5659;49.408;11.116;2024-03-22T10:14:09;19.05;;;11.18;;
11203;SDS011;5659;49.408;11.116;2024-03-22T10:16:36;14.77;;;10.27;;
11203;SDS011;5659;49.408;11.116;2024-03-22T10:19:02;13.32;;;10.10;;
11203;SDS011;5659;49.408;11.116;2024-03-22T10:21:28;11.63;;;9.43;;
11203;SDS011;5659;49.408;11.116;2024-03-22T10:23:56;15.88;;;9.35;;
11203;SDS011;5659;49.408;11.116;2024-03-22T10:26:22;11.85;;;9.00;;
11203;SDS011;5659;49.408;11.116;2024-03-22T10:28:48;9.70;;;7.93;;
11203;SDS011;5659;49.408;11.116;2024-03-22T10:31:14;11.80;;;8.10;;
11203;SDS011;5659;49.408;11.116;2024-03-22T10:33:40;9.65;;;7.18;;
11203;SDS011;5659;49.408;11.116;2024-03-22T10:36:07;12.38;;;8.00;;
11203;SDS011;5659;49.408;11.116;2024-03-22T10:38:33;12.10;;;7.32;;
11203;SDS011;5659;49.408;11.116;2024-03-22T10:41:02;11.23;;;7.95;;
11203;SDS011;5659;49.408;11.116;2024-03-22T10:43:28;10.10;;;8.07;;
11203;SDS011;5659;49.408;11.116;2024-03-22T10:45:55;11.68;;;8.50;;
11203;SDS011;5659;49.408;11.116;2024-03-22T10:48:22;10.52;;;8.65;;
11203;SDS011;5659;49.408;11.116;2024-03-22T10:50:49;14.90;;;8.43;;
11203;SDS011;5659;49.408;11.116;2024-03-22T10:53:17;11.68;;;8.80;;
11203;SDS011;5659;49.408;11.116;2024-03-22T10:55:47;9.85;;;8.35;;
11203;SDS011;5659;49.408;11.116;2024-03-22T10:58:18;10.38;;;8.50;;
11203;SDS011;5659;49.408;11.116;2024-03-22T11:00:44;12.02;;;8.80;;
11203;SDS011;5659;49.408;11.116;2024-03-22T11:03:10;9.73;;;8.57;;
11203;SDS011;5659;49.408;11.116;2024-03-22T11:05:45;12.50;;;8.18;;
11203;SDS011;5659;49.408;11.116;2024-03-22T11:08:12;9.52;;;8.27;;
11203;SDS011;5659;49.408;11.116;2024-03-22T11:10:38;9.85;;;7.75;;
11203;SDS011;5659;49.408;11.116;2024-03-22T11:13:05;9.27;;;6.93;;
11203;SDS011;5659;49.408;11.116;2024-03-22T11:15:32;9.48;;;7.88;;
11203;SDS011;5659;49.408;11.116;2024-03-22T11:17:58;9.90;;;7.38;;
11203;SDS011;5659;49.408;11.116;2024-03-22T11:20:24;6.90;;;4.90;;
11203;SDS011;5659;49.408;11.116;2024-03-22T11:22:53;7.95;;;5.10;;
11203;SDS011;5659;49.408;11.116;2024-03-22T11:25:20;5.90;;;5.28;;
11203;SDS011;5659;49.408;11.116;2024-03-22T11:27:46;7.55;;;5.90;;
11203;SDS011;5659;49.408;11.116;2024-03-22T11:30:12;8.55;;;6.00;;
11203;SDS011;5659;49.408;11.116;2024-03-22T11:32:41;8.60;;;6.18;;
11203;SDS011;5659;49.408;11.116;2024-03-22T11:35:09;8.55;;;6.10;;
11203;SDS011;5659;49.408;11.116;2024-03-22T11:37:36;8.80;;;5.88;;
11203;SDS011;5659;49.408;11.116;2024-03-22T11:40:02;6.28;;;5.45;;
11203;SDS011;5659;49.408;11.116;2024-03-22T11:42:30;8.50;;;5.30;;
11203;SDS011;5659;49.408;11.116;2024-03-22T11:44:56;6.93;;;5.40;;
11203;SDS011;5659;49.408;11.116;2024-03-22T11:47:23;11.02;;;5.03;;
11203;SDS011;5659;49.408;11.116;2024-03-22T11:49:50;10.10;;;5.85;;
11203;SDS011;5659;49.408;11.116;2024-03-22T11:52:16;7.55;;;5.38;;
11203;SDS011;5659;49.408;11.116;2024-03-22T11:54:42;6.57;;;5.53;;
11203;SDS011;5659;49.408;11.116;2024-03-22T11:57:11;8.02;;;6.00;;
11203;SDS011;5659;49.408;11.116;2024-03-22T11:59:40;6.43;;;5.15;;
11203;SDS011;5659;49.408;11.116;2024-03-22T12:02:05;6.20;;;5.50;;
11203;SDS011;5659;49.408;11.116;2024-03-22T12:04:33;8.88;;;5.22;;
11203;SDS011;5659;49.408;11.116;2024-03-22T12:06:58;6.35;;;5.25;;
11203;SDS011;5659;49.408;11.116;2024-03-22T12:09:25;9.48;;;5.28;;
11203;SDS011;5659;49.408;11.116;2024-03-22T12:11:51;6.43;;;5.25;;
11203;SDS011;5659;49.408;11.116;2024-03-22T12:14:20;6.70;;;4.70;;
11203;SDS011;5659;49.408;11.116;2024-03-22T12:16:46;5.25;;;4.75;;
11203;SDS011;5659;49.408;11.116;2024-03-22T12:19:12;8.35;;;5.03;;
11203;SDS011;5659;49.408;11.116;2024-03-22T12:21:38;7.70;;;4.90;;
11203;SDS011;5659;49.408;11.116;2024-03-22T12:24:04;5.88;;;4.97;;
11203;SDS011;5659;49.408;11.116;2024-03-22T12:26:30;5.00;;;4.50;;
11203;SDS011;5659;49.408;11.116;2024-03-22T12:28:57;7.57;;;4.95;;
11203;SDS011;5659;49.408;11.116;2024-03-22T12:31:23;7.72;;;5.22;;
11203;SDS011;5659;49.408;11.116;2024-03-22T12:33:49;6.03;;;5.20;;
11203;SDS011;5659;49.408;11.116;2024-03-22T12:36:15;4.97;;;4.47;;
11203;SDS011;5659;49.408;11.116;2024-03-22T12:38:41;8.02;;;4.78;;
11203;SDS011;5659;49.408;11.116;2024-03-22T12:41:07;7.10;;;4.88;;
11203;SDS011;5659;49.408;11.116;2024-03-22T12:43:33;5.40;;;4.90;;
11203;SDS011;5659;49.408;11.116;2024-03-22T12:45:59;5.70;;;4.72;;
11203;SDS011;5659;49.408;11.116;2024-03-22T12:48:25;6.75;;;4.65;;
11203;SDS011;5659;49.408;11.116;2024-03-22T12:50:51;9.38;;;4.97;;
11203;SDS011;5659;49.408;11.116;2024-03-22T12:53:18;5.53;;;4.80;;
11203;SDS011;5659;49.408;11.116;2024-03-22T12:55:44;5.03;;;4.55;;
11203;SDS011;5659;49.408;11.116;2024-03-22T12:58:10;5.90;;;5.15;;
11203;SDS011;5659;49.408;11.116;2024-03-22T13:00:36;6.07;;;4.88;;
11203;SDS011;5659;49.408;11.116;2024-03-22T13:03:02;6.30;;;4.70;;
11203;SDS011;5659;49.408;11.116;2024-03-22T13:05:28;4.90;;;4.40;;
11203;SDS011;5659;49.408;11.116;2024-03-22T13:07:56;6.07;;;4.45;;
11203;SDS011;5659;49.408;11.116;2024-03-22T13:10:22;5.80;;;5.07;;
11203;SDS011;5659;49.408;11.116;2024-03-22T13:12:48;11.00;;;4.88;;
11203;SDS011;5659;49.408;11.116;2024-03-22T13:15:13;5.60;;;5.00;;
11203;SDS011;5659;49.408;11.116;2024-03-22T13:17:40;5.88;;;4.80;;
11203;SDS011;5659;49.408;11.116;2024-03-22T13:20:06;6.20;;;4.82;;
11203;SDS011;5659;49.408;11.116;2024-03-22T13:22:35;5.07;;;4.55;;
11203;SDS011;5659;49.408;11.116;2024-03-22T13:25:01;5.28;;;4.35;;
11203;SDS011;5659;49.408;11.116;2024-03-22T13:27:31;4.22;;;3.75;;
11203;SDS011;5659;49.408;11.116;2024-03-22T13:29:57;5.03;;;4.13;;
11203;SDS011;5659;49.408;11.116;2024-03-22T13:32:23;6.18;;;4.07;;
11203;SDS011;5659;49.408;11.116;2024-03-22T13:34:49;5.93;;;3.90;;
11203;SDS011;5659;49.408;11.116;2024-03-22T13:37:15;8.13;;;4.50;;
11203;SDS011;5659;49.408;11.116;2024-03-22T13:39:41;6.50;;;4.28;;
11203;SDS011;5659;49.408;11.116;2024-03-22T13:42:07;6.97;;;4.40;;
11203;SDS011;5659;49.408;11.116;2024-03-22T13:44:34;6.35;;;4.50;;
11203;SDS011;5659;49.408;11.116;2024-03-22T13:47:00;6.07;;;4.32;;
11203;SDS011;5659;49.408;11.116;2024-03-22T13:49:26;5.80;;;4.32;;
11203;SDS011;5659;49.408;11.116;2024-03-22T13:51:53;5.80;;;4.30;;
11203;SDS011;5659;49.408;11.116;2024-03-22T13:54:18;5.40;;;3.97;;
11203;SDS011;5659;49.408;11.116;2024-03-22T13:56:45;5.32;;;3.83;;
11203;SDS011;5659;49.408;11.116;2024-03-22T13:59:11;6.13;;;3.78;;
11203;SDS011;5659;49.408;11.116;2024-03-22T14:01:39;6.07;;;4.00;;
11203;SDS011;5659;49.408;11.116;2024-03-22T14:04:06;6.40;;;4.05;;
11203;SDS011;5659;49.408;11.116;2024-03-22T14:06:32;7.22;;;4.07;;
11203;SDS011;5659;49.408;11.116;2024-03-22T14:08:59;6.20;;;3.72;;
11203;SDS011;5659;49.408;11.116;2024-03-22T14:11:27;6.00;;;3.65;;
11203;SDS011;5659;49.408;11.116;2024-03-22T14:13:53;5.35;;;3.90;;
11203;SDS011;5659;49.408;11.116;2024-03-22T14:16:19;4.25;;;3.50;;
11203;SDS011;5659;49.408;11.116;2024-03-22T14:18:45;6.32;;;3.30;;
11203;SDS011;5659;49.408;11.116;2024-03-22T14:21:11;4.97;;;3.42;;